createdAt,value
2019-05-29T00:00:25.181Z,96607.00
2019-05-29T00:02:56.889Z,96603.58
2019-05-29T00:05:28.571Z,96611.37
2019-05-29T00:08:00.151Z,96607.12
2019-05-29T00:10:31.971Z,96614.82
2019-05-29T00:13:03.474Z,96612.24
2019-05-29T00:15:35.283Z,96612.72
2019-05-29T00:18:06.832Z,96613.56
2019-05-29T00:20:38.413Z,96612.69
2019-05-29T00:23:10.478Z,96611.88
2019-05-29T00:25:42.016Z,96621.41
2019-05-29T00:28:14.763Z,96620.22
2019-05-29T00:30:47.639Z,96623.20
2019-05-29T00:33:19.247Z,96615.91
2019-05-29T00:35:50.812Z,96623.23
2019-05-29T00:38:22.354Z,96622.36
2019-05-29T00:41:02.596Z,96632.25
2019-05-29T00:43:53.806Z,96624.89
2019-05-29T00:46:27.708Z,96631.41
2019-05-29T00:48:59.312Z,96631.01
2019-05-29T00:51:30.922Z,96634.45
2019-05-29T00:54:02.459Z,96637.48
2019-05-29T00:56:33.973Z,96632.74
2019-05-29T00:59:05.562Z,96648.25
2019-05-29T01:01:37.473Z,96634.91
2019-05-29T01:04:09.585Z,96643.94
2019-05-29T01:06:41.422Z,96643.50
2019-05-29T01:09:12.939Z,96643.48
2019-05-29T01:11:44.535Z,96655.53
2019-05-29T01:14:17.168Z,96650.81
2019-05-29T01:16:48.832Z,96660.30
2019-05-29T01:19:26.150Z,96656.87
2019-05-29T01:21:58.520Z,96658.58
2019-05-29T01:24:30.533Z,96665.89
2019-05-29T01:27:02.282Z,96661.61
2019-05-29T01:29:33.897Z,96665.06
2019-05-29T01:32:05.451Z,96666.33
2019-05-29T01:34:36.939Z,96676.70
2019-05-29T01:37:08.429Z,96676.25
2019-05-29T01:39:40.571Z,96672.35
2019-05-29T01:42:12.062Z,96674.10
2019-05-29T01:44:43.680Z,96672.80
2019-05-29T01:47:15.421Z,96685.27
2019-05-29T01:49:46.922Z,96676.67
2019-05-29T01:52:19.572Z,96687.47
2019-05-29T01:54:51.495Z,96685.30
2019-05-29T01:57:23.797Z,96685.34
2019-05-29T01:59:55.381Z,96687.52
2019-05-29T02:02:28.150Z,96690.51
2019-05-29T02:05:00.115Z,96687.08
2019-05-29T02:07:31.656Z,96688.37
2019-05-29T02:10:03.131Z,96697.41
2019-05-29T02:12:34.699Z,96703.45
2019-05-29T02:15:21.085Z,96699.17
2019-05-29T02:17:40.999Z,96706.48
2019-05-29T02:20:12.907Z,96712.95
2019-05-29T02:22:44.431Z,96716.39
2019-05-29T02:25:17.694Z,96721.55
2019-05-29T02:27:49.398Z,96717.24
2019-05-29T02:30:23.608Z,96722.84
2019-05-29T02:32:54.511Z,96729.30
2019-05-29T02:35:28.778Z,96728.47
2019-05-29T02:37:59.784Z,96728.48
2019-05-29T02:40:32.000Z,96724.62
2019-05-29T02:43:03.747Z,96724.17
2019-05-29T02:45:53.176Z,96728.50
2019-05-29T02:48:08.537Z,96729.78
2019-05-29T02:50:40.371Z,96732.78
2019-05-29T02:53:12.258Z,96738.80
2019-05-29T02:55:43.923Z,96746.53
2019-05-29T02:58:15.476Z,96750.84
2019-05-29T03:00:56.656Z,96754.74
2019-05-29T03:03:29.976Z,96759.90
2019-05-29T03:06:01.435Z,96757.73
2019-05-29T03:08:34.386Z,96762.05
2019-05-29T03:11:06.428Z,96762.47
2019-05-29T03:13:37.900Z,96764.63
2019-05-29T03:16:12.413Z,96773.22
2019-05-29T03:18:42.540Z,96775.80
2019-05-29T03:21:14.272Z,96771.08
2019-05-29T03:23:45.788Z,96772.37
2019-05-29T03:26:17.609Z,96779.27
2019-05-29T03:28:49.074Z,96783.54
2019-05-29T03:31:21.266Z,96785.70
2019-05-29T03:33:53.789Z,96795.62
2019-05-29T03:36:28.390Z,96796.45
2019-05-29T03:38:58.467Z,96798.63
2019-05-29T03:41:30.310Z,96799.05
2019-05-29T03:44:01.732Z,96803.36
2019-05-29T03:46:41.273Z,96808.94
2019-05-29T03:49:06.506Z,96809.36
2019-05-29T03:51:39.038Z,96807.23
2019-05-29T03:54:10.855Z,96812.81
2019-05-29T03:56:42.220Z,96814.53
2019-05-29T03:59:13.845Z,96811.09
2019-05-29T04:01:45.256Z,96813.67
2019-05-29T04:04:16.723Z,96825.28
2019-05-29T04:06:48.833Z,96828.73
2019-05-29T04:09:20.313Z,96830.45
2019-05-29T04:11:52.127Z,96826.59
2019-05-29T04:14:24.602Z,96833.02
2019-05-29T04:17:00.223Z,96834.76
2019-05-29T04:19:34.933Z,96842.94
2019-05-29T04:22:11.253Z,96844.66
2019-05-29T04:24:42.730Z,96848.52
2019-05-29T04:27:15.988Z,96851.54
2019-05-29T04:29:48.854Z,96854.13
2019-05-29T04:32:20.383Z,96859.70
2019-05-29T04:34:52.320Z,96861.44
2019-05-29T04:37:25.254Z,96857.55
2019-05-29T04:39:56.978Z,96867.05
2019-05-29T04:42:29.608Z,96875.22
2019-05-29T04:45:01.891Z,96874.34
2019-05-29T04:47:35.105Z,96883.83
2019-05-29T04:50:06.884Z,96878.23
2019-05-29T04:52:40.216Z,96888.12
2019-05-29T04:55:12.405Z,96882.95
2019-05-29T04:57:43.884Z,96880.80
2019-05-29T05:00:15.809Z,96891.98
2019-05-29T05:02:47.357Z,96892.86
2019-05-29T05:05:19.729Z,96896.28
2019-05-29T05:07:53.312Z,96903.59
2019-05-29T05:10:43.686Z,96901.02
2019-05-29T05:13:15.200Z,96910.95
2019-05-29T05:15:48.817Z,96916.97
2019-05-29T05:18:20.148Z,96919.97
2019-05-29T05:20:51.956Z,96931.15
2019-05-29T05:23:23.366Z,96934.17
2019-05-29T05:25:54.839Z,96929.86
2019-05-29T05:28:26.592Z,96935.89
2019-05-29T05:30:58.141Z,96928.58
2019-05-29T05:33:30.399Z,96941.08
2019-05-29T05:36:02.341Z,96943.23
2019-05-29T05:38:34.682Z,96947.97
2019-05-29T05:41:06.384Z,96950.96
2019-05-29T05:43:38.985Z,96954.83
2019-05-29T05:46:10.577Z,96956.16
2019-05-29T05:48:42.125Z,96959.56
2019-05-29T05:51:13.699Z,96960.44
2019-05-29T05:53:45.255Z,96966.91
2019-05-29T05:56:16.722Z,96967.75
2019-05-29T05:58:48.345Z,96964.70
2019-05-29T06:01:19.877Z,96973.34
2019-05-29T06:03:51.656Z,96974.17
2019-05-29T06:06:23.092Z,96975.09
2019-05-29T06:08:54.528Z,96980.25
2019-05-29T06:11:26.120Z,96980.27
2019-05-29T06:13:57.858Z,96983.27
2019-05-29T06:16:29.335Z,96991.83
2019-05-29T06:19:01.262Z,96979.73
2019-05-29T06:21:32.724Z,96987.05
2019-05-29T06:24:04.288Z,96986.69
2019-05-29T06:26:36.783Z,96986.59
2019-05-29T06:29:08.342Z,96996.13
2019-05-29T06:31:41.351Z,96997.78
2019-05-29T06:34:12.992Z,97001.65
2019-05-29T06:36:47.895Z,96998.56
2019-05-29T06:39:18.025Z,97007.58
2019-05-29T06:41:49.535Z,97012.31
2019-05-29T06:44:21.427Z,97001.05
2019-05-29T06:46:52.906Z,97002.80
2019-05-29T06:49:24.411Z,97001.91
2019-05-29T06:51:56.317Z,97004.06
2019-05-29T06:54:28.071Z,97008.45
2019-05-29T06:56:59.876Z,97019.79
2019-05-29T06:59:31.420Z,97022.83
2019-05-29T07:02:02.891Z,97033.23
2019-05-29T07:04:34.414Z,97030.21
2019-05-29T07:07:06.296Z,97037.05
2019-05-29T07:09:38.815Z,97036.61
2019-05-29T07:12:10.477Z,97035.75
2019-05-29T07:14:42.495Z,97050.76
2019-05-29T07:17:13.934Z,97056.33
2019-05-29T07:19:58.146Z,97061.89
2019-05-29T07:22:18.969Z,97067.48
2019-05-29T07:24:50.452Z,97068.77
2019-05-29T07:27:21.934Z,97073.91
2019-05-29T07:29:53.448Z,97075.20
2019-05-29T07:32:25.240Z,97073.95
2019-05-29T07:35:03.884Z,97078.73
2019-05-29T07:37:30.138Z,97083.95
2019-05-29T07:40:01.991Z,97082.25
2019-05-29T07:42:33.464Z,97095.14
2019-05-29T07:45:06.352Z,97096.84
2019-05-29T07:47:38.310Z,97102.84
2019-05-29T07:50:11.261Z,97099.25
2019-05-29T07:52:44.141Z,97093.77
2019-05-29T07:55:16.072Z,97093.67
2019-05-29T07:57:48.864Z,97097.41
2019-05-29T08:00:22.710Z,97101.03
2019-05-29T08:02:54.116Z,97103.69
2019-05-29T08:05:25.576Z,97106.42
2019-05-29T08:07:56.988Z,97104.31
2019-05-29T08:10:28.525Z,97105.19
2019-05-29T08:13:00.038Z,97113.66
2019-05-29T08:15:32.287Z,97120.07
2019-05-29T08:18:03.821Z,97111.84
2019-05-29T08:20:35.334Z,97110.25
2019-05-29T08:23:06.800Z,97109.19
2019-05-29T08:25:38.302Z,97111.33
2019-05-29T08:28:11.318Z,97116.45
2019-05-29T08:30:48.347Z,97119.05
2019-05-29T08:33:17.079Z,97121.57
2019-05-29T08:35:57.698Z,97130.53
2019-05-29T08:38:21.825Z,97124.15
2019-05-29T08:40:53.275Z,97121.48
2019-05-29T08:43:25.093Z,97122.44
2019-05-29T08:45:56.555Z,97127.49
2019-05-29T08:48:28.039Z,97121.24
2019-05-29T08:50:59.743Z,97129.81
2019-05-29T08:53:31.302Z,97140.19
2019-05-29T08:56:02.845Z,97144.86
2019-05-29T08:58:37.207Z,97143.69
2019-05-29T09:01:07.992Z,97141.51
2019-05-29T09:03:39.751Z,97139.95
2019-05-29T09:06:13.613Z,97142.32
2019-05-29T09:08:46.222Z,97140.46
2019-05-29T09:11:17.499Z,97146.38
2019-05-29T09:13:48.986Z,97145.23
2019-05-29T09:16:20.499Z,97140.58
2019-05-29T09:18:52.039Z,97143.34
2019-05-29T09:21:26.635Z,97143.50
2019-05-29T09:23:59.045Z,97136.27
2019-05-29T09:26:30.743Z,97145.75
2019-05-29T09:29:02.553Z,97144.86
2019-05-29T09:31:34.070Z,97152.95
2019-05-29T09:34:05.885Z,97156.48
2019-05-29T09:36:37.400Z,97150.39
2019-05-29T09:39:09.791Z,97157.05
2019-05-29T09:41:41.210Z,97163.24
2019-05-29T09:44:28.230Z,97158.07
2019-05-29T09:46:45.782Z,97154.05
2019-05-29T09:49:18.274Z,97156.47
2019-05-29T09:51:49.922Z,97162.88
2019-05-29T09:54:21.503Z,97162.75
2019-05-29T09:56:56.122Z,97167.92
2019-05-29T09:59:27.570Z,97169.95
2019-05-29T10:02:00.321Z,97164.09
2019-05-29T10:04:32.222Z,97161.61
2019-05-29T10:07:04.790Z,97161.67
2019-05-29T10:09:36.764Z,97172.43
2019-05-29T10:12:08.704Z,97179.70
2019-05-29T10:14:40.160Z,97175.36
2019-05-29T10:17:13.266Z,97175.88
2019-05-29T10:19:45.336Z,97170.23
2019-05-29T10:22:16.935Z,97172.73
2019-05-29T10:24:48.438Z,97175.88
2019-05-29T10:27:20.540Z,97177.95
2019-05-29T10:29:53.954Z,97179.70
2019-05-29T10:32:25.835Z,97174.23
2019-05-29T10:34:57.373Z,97184.58
2019-05-29T10:37:28.965Z,97180.96
2019-05-29T10:40:00.437Z,97181.91
2019-05-29T10:42:32.018Z,97183.97
2019-05-29T10:45:03.517Z,97184.24
2019-05-29T10:47:35.060Z,97188.36
2019-05-29T10:50:07.736Z,97189.52
2019-05-29T10:52:39.270Z,97193.47
2019-05-29T10:55:11.262Z,97188.49
2019-05-29T10:57:44.617Z,97189.37
2019-05-29T11:00:18.578Z,97189.34
2019-05-29T11:02:53.097Z,97187.38
2019-05-29T11:05:23.367Z,97194.39
2019-05-29T11:07:55.959Z,97189.53
2019-05-29T11:10:27.596Z,97195.94
2019-05-29T11:12:59.369Z,97200.70
2019-05-29T11:15:30.842Z,97203.75
2019-05-29T11:18:02.342Z,97201.25
2019-05-29T11:20:33.857Z,97206.42
2019-05-29T11:23:05.643Z,97206.42
2019-05-29T11:25:37.588Z,97210.22
2019-05-29T11:28:09.100Z,97215.59
2019-05-29T11:30:40.649Z,97222.55
2019-05-29T11:33:12.072Z,97225.46
2019-05-29T11:35:58.120Z,97233.44
2019-05-29T11:38:17.104Z,97239.70
2019-05-29T11:40:49.096Z,97251.88
2019-05-29T11:43:21.351Z,97249.28
2019-05-29T11:45:53.151Z,97254.14
2019-05-29T11:48:25.023Z,97252.13
2019-05-29T11:50:56.435Z,97261.65
2019-05-29T11:53:28.228Z,97256.02
2019-05-29T11:55:59.971Z,97257.33
2019-05-29T11:58:31.951Z,97259.05
2019-05-29T12:01:03.428Z,97257.27
2019-05-29T12:03:35.157Z,97254.27
2019-05-29T12:06:06.803Z,97255.03
2019-05-29T12:08:38.267Z,97257.17
2019-05-29T12:11:09.828Z,97262.30
2019-05-29T12:13:41.291Z,97262.66
2019-05-29T12:16:12.797Z,97264.06
2019-05-29T12:18:44.899Z,97262.37
2019-05-29T12:21:16.428Z,97262.23
2019-05-29T12:23:47.858Z,97264.79
2019-05-29T12:26:22.743Z,97264.73
2019-05-29T12:28:53.967Z,97271.00
2019-05-29T12:31:26.397Z,97274.94
2019-05-29T12:34:04.524Z,97280.09
2019-05-29T12:36:31.347Z,97274.67
2019-05-29T12:39:04.193Z,97273.88
2019-05-29T12:41:36.156Z,97265.75
2019-05-29T12:44:08.005Z,97269.12
2019-05-29T12:46:39.417Z,97265.55
2019-05-29T12:49:11.349Z,97271.20
2019-05-29T12:51:42.947Z,97272.19
2019-05-29T12:54:14.368Z,97269.93
2019-05-29T12:56:45.829Z,97289.10
2019-05-29T12:59:17.358Z,97277.82
2019-05-29T13:01:48.821Z,97282.67
2019-05-29T13:04:20.281Z,97282.33
2019-05-29T13:06:51.773Z,97282.77
2019-05-29T13:09:23.325Z,97277.73
2019-05-29T13:11:54.697Z,97279.67
2019-05-29T13:14:26.168Z,97281.38
2019-05-29T13:16:58.798Z,97288.66
2019-05-29T13:19:30.496Z,97284.85
2019-05-29T13:22:03.471Z,97282.22
2019-05-29T13:24:35.125Z,97288.80
2019-05-29T13:27:06.721Z,97287.96
2019-05-29T13:29:38.367Z,97287.46
2019-05-29T13:32:09.910Z,97296.38
2019-05-29T13:34:41.785Z,97289.32
2019-05-29T13:37:13.273Z,97286.84
2019-05-29T13:39:45.009Z,97300.53
2019-05-29T13:42:16.498Z,97289.30
2019-05-29T13:44:48.044Z,97287.20
2019-05-29T13:47:19.864Z,97286.66
2019-05-29T13:49:51.625Z,97294.56
2019-05-29T13:52:23.121Z,97280.58
2019-05-29T13:54:54.481Z,97295.89
2019-05-29T13:57:25.960Z,97294.19
2019-05-29T13:59:57.876Z,97297.55
2019-05-29T14:02:30.731Z,97296.87
2019-05-29T14:05:02.814Z,97303.50
2019-05-29T14:07:35.635Z,97301.11
2019-05-29T14:10:09.477Z,97308.48
2019-05-29T14:12:41.489Z,97302.19
2019-05-29T14:15:13.311Z,97311.71
2019-05-29T14:17:45.111Z,97316.89
2019-05-29T14:20:17.194Z,97314.03
2019-05-29T14:22:49.094Z,97319.25
2019-05-29T14:25:20.580Z,97322.47
2019-05-29T14:27:52.395Z,97318.41
2019-05-29T14:30:24.436Z,97311.81
2019-05-29T14:32:56.036Z,97316.70
2019-05-29T14:35:27.544Z,97320.27
2019-05-29T14:37:59.125Z,97316.78
2019-05-29T14:40:30.515Z,97324.36
2019-05-29T14:43:01.983Z,97324.09
2019-05-29T14:45:34.449Z,97326.81
2019-05-29T14:48:06.311Z,97330.38
2019-05-29T14:50:37.805Z,97336.85
2019-05-29T14:53:10.914Z,97324.92
2019-05-29T14:55:42.651Z,97336.91
2019-05-29T14:58:14.206Z,97330.96
2019-05-29T15:00:45.819Z,97337.80
2019-05-29T15:03:17.576Z,97339.69
2019-05-29T15:05:49.065Z,97343.08
2019-05-29T15:08:20.566Z,97347.78
2019-05-29T15:10:52.153Z,97346.95
2019-05-29T15:13:24.552Z,97342.88
2019-05-29T15:15:56.148Z,97346.78
2019-05-29T15:18:27.583Z,97351.91
2019-05-29T15:20:59.286Z,97355.42
2019-05-29T15:23:30.655Z,97358.82
2019-05-29T15:26:02.870Z,97358.22
2019-05-29T15:28:34.181Z,97364.33
2019-05-29T15:31:06.306Z,97360.14
2019-05-29T15:33:37.809Z,97369.30
2019-05-29T15:36:10.636Z,97360.53
2019-05-29T15:38:42.117Z,97362.15
2019-05-29T15:41:14.776Z,97365.63
2019-05-29T15:43:49.244Z,97374.27
2019-05-29T15:46:22.374Z,97371.33
2019-05-29T15:48:54.411Z,97382.25
2019-05-29T15:51:25.921Z,97378.45
2019-05-29T15:53:57.416Z,97385.30
2019-05-29T15:56:28.909Z,97381.25
2019-05-29T15:59:00.333Z,97388.84
2019-05-29T16:01:31.844Z,97388.61
2019-05-29T16:04:03.371Z,97388.03
2019-05-29T16:06:34.839Z,97379.66
2019-05-29T16:09:10.221Z,97383.57
2019-05-29T16:11:42.194Z,97387.88
2019-05-29T16:14:14.850Z,97386.58
2019-05-29T16:16:46.717Z,97397.80
2019-05-29T16:19:18.519Z,97401.58
2019-05-29T16:21:50.995Z,97395.48
2019-05-29T16:24:23.042Z,97401.59
2019-05-29T16:27:07.994Z,97402.22
2019-05-29T16:29:29.283Z,97409.11
2019-05-29T16:32:00.762Z,97406.41
2019-05-29T16:34:32.172Z,97405.14
2019-05-29T16:37:03.711Z,97415.85
2019-05-29T16:39:35.304Z,97411.09
2019-05-29T16:42:07.059Z,97419.48
2019-05-29T16:44:38.788Z,97422.25
2019-05-29T16:47:10.261Z,97420.21
2019-05-29T16:49:41.700Z,97425.39
2019-05-29T16:52:13.186Z,97426.34
2019-05-29T16:54:44.787Z,97434.75
2019-05-29T16:57:17.119Z,97434.20
2019-05-29T16:59:48.984Z,97432.23
2019-05-29T17:02:21.639Z,97436.63
2019-05-29T17:04:53.250Z,97438.98
2019-05-29T17:07:24.756Z,97441.04
2019-05-29T17:09:56.210Z,97438.30
2019-05-29T17:12:27.623Z,97439.80
2019-05-29T17:14:59.545Z,97441.10
2019-05-29T17:17:31.340Z,97440.98
2019-05-29T17:20:02.989Z,97443.06
2019-05-29T17:22:34.683Z,97443.21
2019-05-29T17:25:07.446Z,97451.59
2019-05-29T17:27:39.961Z,97454.80
2019-05-29T17:30:12.397Z,97454.33
2019-05-29T17:32:43.787Z,97462.05
2019-05-29T17:35:15.367Z,97463.17
2019-05-29T17:37:46.691Z,97467.19
2019-05-29T17:40:19.139Z,97463.84
2019-05-29T17:42:51.247Z,97473.27
2019-05-29T17:45:25.610Z,97467.43
2019-05-29T17:47:55.882Z,97474.93
2019-05-29T17:50:28.991Z,97475.32
2019-05-29T17:53:00.575Z,97476.78
2019-05-29T17:55:32.156Z,97476.98
2019-05-29T17:58:03.769Z,97479.17
2019-05-29T18:00:35.470Z,97480.91
2019-05-29T18:03:07.341Z,97486.47
2019-05-29T18:05:39.076Z,97488.25
2019-05-29T18:08:10.558Z,97499.55
2019-05-29T18:10:41.991Z,97497.50
2019-05-29T18:13:13.480Z,97500.59
2019-05-29T18:15:45.023Z,97505.38
2019-05-29T18:18:17.452Z,97498.52
2019-05-29T18:20:50.103Z,97509.76
2019-05-29T18:23:21.966Z,97514.51
2019-05-29T18:25:53.475Z,97515.39
2019-05-29T18:28:26.067Z,97517.54
2019-05-29T18:30:57.518Z,97519.30
2019-05-29T18:33:29.023Z,97524.93
2019-05-29T18:36:00.554Z,97527.10
2019-05-29T18:38:32.747Z,97527.52
2019-05-29T18:41:04.357Z,97527.50
2019-05-29T18:43:35.897Z,97535.28
2019-05-29T18:46:07.298Z,97533.06
2019-05-29T18:48:38.769Z,97533.88
2019-05-29T18:51:10.251Z,97537.28
2019-05-29T18:53:41.657Z,97539.39
2019-05-29T18:56:13.300Z,97553.58
2019-05-29T18:58:44.717Z,97550.89
2019-05-29T19:01:16.568Z,97552.53
2019-05-29T19:03:48.071Z,97554.16
2019-05-29T19:06:19.579Z,97567.46
2019-05-29T19:08:51.086Z,97565.19
2019-05-29T19:11:23.825Z,97566.77
2019-05-29T19:13:55.444Z,97574.86
2019-05-29T19:16:27.983Z,97578.66
2019-05-29T19:18:59.491Z,97580.73
2019-05-29T19:21:31.071Z,97579.73
2019-05-29T19:24:02.462Z,97589.45
2019-05-29T19:26:36.786Z,97591.36
2019-05-29T19:29:07.183Z,97602.28
2019-05-29T19:31:42.479Z,97601.87
2019-05-29T19:34:12.682Z,97605.86
2019-05-29T19:36:44.330Z,97611.77
2019-05-29T19:39:15.841Z,97616.05
2019-05-29T19:41:47.252Z,97627.45
2019-05-29T19:44:18.991Z,97630.08
2019-05-29T19:46:54.124Z,97626.53
2019-05-29T19:49:25.608Z,97636.77
2019-05-29T19:51:58.060Z,97639.34
2019-05-29T19:54:29.689Z,97650.93
2019-05-29T19:57:01.103Z,97641.84
2019-05-29T19:59:34.182Z,97647.33
2019-05-29T20:02:05.710Z,97655.12
2019-05-29T20:04:37.352Z,97653.91
2019-05-29T20:07:08.865Z,97656.11
2019-05-29T20:09:40.395Z,97661.47
2019-05-29T20:12:12.231Z,97654.16
2019-05-29T20:14:43.779Z,97666.50
2019-05-29T20:17:15.254Z,97660.80
2019-05-29T20:19:46.759Z,97666.41
2019-05-29T20:22:18.328Z,97666.09
2019-05-29T20:24:49.735Z,97671.63
2019-05-29T20:27:21.219Z,97670.73
2019-05-29T20:29:53.033Z,97676.25
2019-05-29T20:32:25.511Z,97678.81
2019-05-29T20:34:57.378Z,97675.77
2019-05-29T20:37:30.007Z,97686.06
2019-05-29T20:40:02.452Z,97677.39
2019-05-29T20:42:34.293Z,97679.56
2019-05-29T20:45:06.053Z,97680.42
2019-05-29T20:47:38.000Z,97679.94
2019-05-29T20:50:10.467Z,97679.46
2019-05-29T20:52:42.067Z,97685.49
2019-05-29T20:55:14.059Z,97691.47
2019-05-29T20:57:45.540Z,97693.72
2019-05-29T21:00:18.550Z,97695.44
2019-05-29T21:02:50.946Z,97703.16
2019-05-29T21:05:22.430Z,97704.36
2019-05-29T21:07:56.368Z,97715.48
2019-05-29T21:10:27.964Z,97702.11
2019-05-29T21:12:59.505Z,97709.73
2019-05-29T21:15:31.087Z,97715.63
2019-05-29T21:18:02.977Z,97714.63
2019-05-29T21:20:34.439Z,97717.05
2019-05-29T21:23:05.920Z,97719.02
2019-05-29T21:25:38.489Z,97717.98
2019-05-29T21:28:10.396Z,97722.63
2019-05-29T21:30:43.747Z,97723.72
2019-05-29T21:33:15.875Z,97725.79
2019-05-29T21:35:48.347Z,97727.78
2019-05-29T21:38:19.858Z,97722.95
2019-05-29T21:40:51.485Z,97726.78
2019-05-29T21:43:23.012Z,97725.81
2019-05-29T21:45:54.571Z,97728.28
2019-05-29T21:48:26.043Z,97721.77
2019-05-29T21:50:57.657Z,97728.98
2019-05-29T21:53:30.201Z,97726.30
2019-05-29T21:56:01.702Z,97727.09
2019-05-29T21:58:33.220Z,97730.86
2019-05-29T22:01:05.226Z,97736.28
2019-05-29T22:03:38.229Z,97732.52
2019-05-29T22:06:10.628Z,97736.39
2019-05-29T22:08:42.817Z,97741.74
2019-05-29T22:11:14.474Z,97732.06
2019-05-29T22:13:46.328Z,97736.24
2019-05-29T22:16:17.877Z,97731.02
2019-05-29T22:18:50.787Z,97733.44
2019-05-29T22:21:22.319Z,97739.31
2019-05-29T22:23:55.062Z,97740.56
2019-05-29T22:26:26.641Z,97748.79
2019-05-29T22:29:16.748Z,97744.13
2019-05-29T22:31:32.909Z,97745.52
2019-05-29T22:34:04.392Z,97741.84
2019-05-29T22:36:36.038Z,97750.62
2019-05-29T22:39:07.962Z,97748.22
2019-05-29T22:41:39.365Z,97754.92
2019-05-29T22:44:10.891Z,97745.81
2019-05-29T22:46:42.829Z,97752.83
2019-05-29T22:49:14.232Z,97747.88
2019-05-29T22:51:45.740Z,97748.70
2019-05-29T22:54:17.316Z,97744.89
2019-05-29T22:56:48.812Z,97747.58
2019-05-29T22:59:31.432Z,97747.13
2019-05-29T23:01:54.101Z,97751.59
2019-05-29T23:04:25.613Z,97745.22
2019-05-29T23:06:58.241Z,97745.73
2019-05-29T23:09:30.177Z,97742.34
2019-05-29T23:12:02.588Z,97746.58
2019-05-29T23:14:34.017Z,97741.62
2019-05-29T23:17:05.802Z,97743.73
2019-05-29T23:19:37.704Z,97750.05
2019-05-29T23:22:09.494Z,97749.65
2019-05-29T23:24:40.980Z,97749.06
2019-05-29T23:27:12.838Z,97750.13
2019-05-29T23:29:49.117Z,97748.44
2019-05-29T23:32:17.918Z,97748.84
2019-05-29T23:34:49.557Z,97752.77
2019-05-29T23:37:21.320Z,97749.09
2019-05-29T23:39:53.086Z,97754.92
2019-05-29T23:42:24.769Z,97755.48
2019-05-29T23:44:57.642Z,97743.06
2019-05-29T23:47:29.130Z,97748.19
2019-05-29T23:50:02.757Z,97747.63
2019-05-29T23:52:34.639Z,97747.25
2019-05-29T23:55:06.745Z,97751.38
2019-05-29T23:57:38.548Z,97746.99
